Time;durP1;ratioP1;P1;durP2;ratioP2;P2;SDS_P1;SDS_P2;PMS_P1;PMS_P2;Temp;Humidity;BMP_temperature;BMP_pressure;BME280_temperature;BME280_humidity;BME280_pressure;Samples;Min_cycle;Max_cycle;Signal;HPM_P1;HPM_P2
2022/01/11 00:00:15;;;;;;;;;2.00;2.00;;;;;12.32;78.90;101237.78;5097015;27;45496;-72
2022/01/11 00:02:44;;;;;;;;;4.00;3.00;;;;;12.32;78.71;101245.63;5097038;27;45527;-72
2022/01/11 00:05:37;;;;;;;;;3.00;1.33;;;;;12.28;78.79;101233.28;5096685;27;46082;-72
2022/01/11 00:07:58;;;;;;;;;1.33;0.33;;;;;12.29;78.93;101237.66;5095842;27;45349;-72
2022/01/11 00:11:03;;;;;;;;;2.00;1.00;;;;;12.21;78.96;101220.78;5096712;27;45428;-71
2022/01/11 00:13:19;;;;;;;;;1.00;1.00;;;;;12.30;78.92;101247.31;5090680;27;45469;-72
2022/01/11 00:15:46;;;;;;;;;2.00;0.00;;;;;12.21;78.90;101236.50;5094082;27;46012;-72
2022/01/11 00:18:13;;;;;;;;;2.33;2.00;;;;;12.29;78.89;101246.38;5096584;27;45522;-72
2022/01/11 00:20:39;;;;;;;;;1.00;1.00;;;;;12.29;79.18;101249.00;5096440;27;45518;-71
2022/01/11 00:25:37;;;;;;;;;1.00;1.00;;;;;12.27;79.06;101248.06;5096442;27;45889;-72
2022/01/11 00:28:03;;;;;;;;;0.67;0.67;;;;;12.24;79.13;101247.09;5093612;27;45274;-72
2022/01/11 00:30:37;;;;;;;;;9.00;8.00;;;;;12.23;78.48;101254.03;5096667;27;45417;-72
2022/01/11 00:33:08;;;;;;;;;2.00;2.00;;;;;12.20;78.96;101251.34;5093861;27;45522;-72
2022/01/11 00:35:43;;;;;;;;;0.00;0.00;;;;;12.22;78.29;101256.63;5096084;27;46001;-72
2022/01/11 00:38:16;;;;;;;;;0.00;0.00;;;;;12.13;78.81;101252.84;5094519;27;45546;-72
2022/01/11 00:40:54;;;;;;;;;0.00;0.00;;;;;12.14;78.48;101251.13;5096197;27;45260;-72
2022/01/11 00:43:22;;;;;;;;;1.00;1.00;;;;;12.13;78.31;101254.56;5096465;27;45542;-72
2022/01/11 00:45:49;;;;;;;;;0.67;0.67;;;;;12.02;78.58;101245.47;5096057;27;46297;-72
2022/01/11 00:48:15;;;;;;;;;1.00;0.00;;;;;12.02;78.63;101254.22;5094554;27;45412;-71
2022/01/11 00:50:42;;;;;;;;;0.67;0.00;;;;;12.04;78.79;101256.88;5096012;27;45357;-72
2022/01/11 00:53:09;;;;;;;;;1.00;0.33;;;;;12.03;78.63;101258.59;5096217;27;45591;-72
2022/01/11 00:55:35;;;;;;;;;1.00;1.00;;;;;12.01;78.59;101259.38;5095817;27;45571;-72
2022/01/11 00:58:05;;;;;;;;;0.00;0.00;;;;;12.00;78.60;101258.50;5095938;27;45541;-72
2022/01/11 01:00:32;;;;;;;;;0.67;0.67;;;;;12.03;78.67;101255.97;5096328;27;45498;-72
2022/01/11 01:02:57;;;;;;;;;2.00;1.00;;;;;11.99;78.63;101241.00;5096433;27;45620;-72
2022/01/11 01:05:24;;;;;;;;;1.00;1.00;;;;;12.01;78.41;101252.41;5095843;27;45471;-72
2022/01/11 01:07:50;;;;;;;;;1.00;1.00;;;;;11.99;78.40;101255.81;5095806;27;45413;-72
2022/01/11 01:10:26;;;;;;;;;1.00;0.33;;;;;11.99;78.40;101255.81;5096247;27;46175;-72
2022/01/11 01:12:53;;;;;;;;;1.00;0.00;;;;;11.99;78.30;101256.69;5094629;27;45642;-72
2022/01/11 01:15:20;;;;;;;;;1.00;1.00;;;;;11.98;77.97;101256.63;5095657;27;46050;-73
2022/01/11 01:17:46;;;;;;;;;1.00;1.00;;;;;11.98;77.89;101256.63;5095569;27;45560;-72
2022/01/11 01:20:11;;;;;;;;;0.00;0.00;;;;;11.97;77.91;101263.59;5095621;27;45392;-72
2022/01/11 01:22:37;;;;;;;;;1.00;1.00;;;;;11.96;78.13;101269.69;5096540;27;45435;-72
2022/01/11 01:25:04;;;;;;;;;1.00;1.00;;;;;11.96;77.97;101260.94;5112289;27;46237;-72
2022/01/11 01:27:30;;;;;;;;;2.00;2.00;;;;;11.94;78.06;101268.75;5099464;27;45488;-72
2022/01/11 01:29:55;;;;;;;;;2.00;2.00;;;;;11.93;77.62;101267.84;5099332;27;45504;-72
2022/01/11 01:32:21;;;;;;;;;2.00;2.00;;;;;11.89;77.42;101263.34;5099319;27;45555;-72
2022/01/11 01:34:49;;;;;;;;;1.00;1.00;;;;;11.86;77.59;101260.59;5099038;27;45902;-72
2022/01/11 01:37:15;;;;;;;;;1.67;1.67;;;;;11.88;77.19;101263.28;5099138;27;45421;-71
2022/01/11 01:39:40;;;;;;;;;2.67;2.00;;;;;11.86;77.34;101257.97;5099287;27;45336;-72
2022/01/11 01:42:08;;;;;;;;;4.00;3.00;;;;;11.94;77.08;101267.03;5099460;27;45345;-72
2022/01/11 01:44:34;;;;;;;;;4.00;3.67;;;;;11.80;77.13;101247.28;5099032;27;45338;-72
2022/01/11 01:47:00;;;;;;;;;3.00;2.00;;;;;11.86;77.40;101264.94;5099006;27;45365;-72
2022/01/11 01:49:28;;;;;;;;;2.00;2.00;;;;;11.80;77.73;101256.84;5099048;27;45562;-72
2022/01/11 01:51:53;;;;;;;;;2.00;2.00;;;;;11.82;77.80;101265.66;5099197;27;45499;-72
2022/01/11 01:54:21;;;;;;;;;4.00;3.67;;;;;11.78;77.48;101262.03;5098508;27;45985;-72
2022/01/11 01:56:47;;;;;;;;;2.00;1.00;;;;;11.83;77.59;101283.13;5098655;27;45357;-72
2022/01/11 01:59:13;;;;;;;;;2.00;1.67;;;;;11.73;77.63;101266.19;5098869;27;45463;-72
2022/01/11 02:01:45;;;;;;;;;3.00;2.00;;;;;11.81;77.67;101283.06;5099300;27;45614;-72
2022/01/11 02:04:12;;;;;;;;;2.00;2.00;;;;;11.81;77.49;101287.44;5097292;27;46656;-72
2022/01/11 02:06:38;;;;;;;;;3.67;3.00;;;;;11.79;77.25;101289.97;5098410;27;45385;-72
2022/01/11 02:09:04;;;;;;;;;2.67;2.67;;;;;11.73;77.46;101284.53;5098661;27;45557;-72
2022/01/11 02:11:31;;;;;;;;;4.33;3.67;;;;;11.77;77.40;101296.00;5097692;27;45404;-72
2022/01/11 02:13:58;;;;;;;;;2.00;2.00;;;;;11.77;77.29;101296.88;5098628;27;46245;-72
2022/01/11 02:16:24;;;;;;;;;3.00;2.67;;;;;11.77;76.99;101296.00;5098354;27;45407;-72
2022/01/11 02:18:51;;;;;;;;;3.67;2.33;;;;;11.77;77.36;101303.84;5114179;27;45443;-71
2022/01/11 02:21:17;;;;;;;;;3.00;2.67;;;;;11.72;77.28;101291.50;5098687;27;45306;-72
2022/01/11 02:23:43;;;;;;;;;3.67;3.00;;;;;11.73;77.67;101298.50;5098225;27;47631;-72
2022/01/11 02:26:10;;;;;;;;;2.00;2.00;;;;;11.73;77.42;101301.13;5098101;27;45613;-72
2022/01/11 02:28:36;;;;;;;;;2.00;1.67;;;;;11.73;77.33;101308.97;5098416;27;45507;-72
2022/01/11 02:31:07;;;;;;;;;2.67;2.00;;;;;11.65;77.53;101288.59;5098324;27;45711;-72
2022/01/11 02:33:43;;;;;;;;;2.67;2.67;;;;;11.70;77.06;101298.41;5098147;27;46087;-71
2022/01/11 02:36:18;;;;;;;;;2.00;2.00;;;;;11.67;77.27;101295.66;5095651;27;45524;-72
2022/01/11 02:38:49;;;;;;;;;4.00;2.00;;;;;11.66;77.49;101291.28;5095581;27;45319;-72
2022/01/11 02:41:16;;;;;;;;;3.00;2.33;;;;;11.63;77.78;101295.50;5098361;27;45363;-72
2022/01/11 02:43:43;;;;;;;;;4.00;4.00;;;;;11.63;77.61;101299.00;5098064;27;45335;-72
2022/01/11 02:46:10;;;;;;;;;5.00;4.67;;;;;11.55;77.61;101289.97;5097928;27;45483;-72
2022/01/11 02:48:37;;;;;;;;;4.33;4.33;;;;;11.60;77.94;101304.13;5097990;27;45530;-72
2022/01/11 02:51:04;;;;;;;;;5.33;4.33;;;;;11.59;77.87;101304.06;5098120;27;45594;-72
2022/01/11 02:53:30;;;;;;;;;5.00;5.00;;;;;11.50;78.15;101297.66;5098287;27;45531;-72
2022/01/11 02:55:55;;;;;;;;;3.67;3.67;;;;;11.57;77.93;101310.97;5097700;27;45383;-72
2022/01/11 02:58:21;;;;;;;;;4.00;3.33;;;;;11.54;77.99;101316.97;5096623;27;45496;-72
2022/01/11 03:00:47;;;;;;;;;4.00;3.00;;;;;11.55;77.64;101318.75;5098988;27;45472;-72
2022/01/11 03:03:17;;;;;;;;;4.00;4.00;;;;;11.51;78.17;101315.13;5098245;27;46196;-72
2022/01/11 03:05:52;;;;;;;;;4.67;4.00;;;;;11.52;78.01;101321.25;5098283;27;45567;-72
2022/01/11 03:08:19;;;;;;;;;4.00;3.33;;;;;11.53;78.13;101316.06;5099488;27;45566;-72
2022/01/11 03:10:47;;;;;;;;;5.00;5.00;;;;;11.46;78.29;101295.75;5099586;27;45425;-72
2022/01/11 03:13:14;;;;;;;;;6.33;5.00;;;;;11.55;77.96;101313.50;5099276;27;46044;-72
2022/01/11 03:15:40;;;;;;;;;4.00;4.00;;;;;11.48;78.23;101299.31;5099276;27;45384;-72
2022/01/11 03:18:06;;;;;;;;;3.00;3.00;;;;;11.46;77.96;101289.59;5099345;27;45292;-72
2022/01/11 03:20:34;;;;;;;;;5.00;5.00;;;;;11.54;78.12;101312.63;5099628;27;45534;-72
2022/01/11 03:22:59;;;;;;;;;6.00;4.00;;;;;11.51;77.88;101309.00;5099291;27;45393;-72
2022/01/11 03:25:25;;;;;;;;;4.00;4.00;;;;;11.50;77.79;101310.72;5098969;27;45457;-72
2022/01/11 03:27:51;;;;;;;;;4.67;3.33;;;;;11.48;77.85;101299.31;5099184;27;45425;-72
2022/01/11 03:30:18;;;;;;;;;3.00;2.67;;;;;11.48;78.00;101301.00;5099407;27;45459;-72
2022/01/11 03:32:44;;;;;;;;;4.67;4.00;;;;;11.44;77.97;101291.25;5098806;27;45498;-72
2022/01/11 03:35:11;;;;;;;;;4.00;4.00;;;;;11.43;78.16;101299.97;5098692;27;45389;-72
2022/01/11 03:37:38;;;;;;;;;6.00;5.00;;;;;11.38;78.19;101299.81;5098921;27;45420;-72
2022/01/11 03:40:07;;;;;;;;;4.00;4.00;;;;;11.37;78.02;101294.50;5099272;27;45424;-72
2022/01/11 03:42:33;;;;;;;;;5.00;5.00;;;;;11.36;78.05;101296.22;5098916;27;45403;-72
2022/01/11 03:44:58;;;;;;;;;4.67;4.00;;;;;11.33;77.96;101298.72;5097259;27;45546;-72
2022/01/11 03:47:24;;;;;;;;;4.33;4.33;;;;;11.33;78.30;101299.59;5096295;27;45594;-72
2022/01/11 03:49:50;;;;;;;;;5.00;4.00;;;;;11.35;78.23;101299.66;5098964;27;45381;-72
2022/01/11 03:52:15;;;;;;;;;4.00;4.00;;;;;11.27;77.84;101291.50;5098420;27;46087;-72
2022/01/11 03:55:03;;;;;;;;;2.33;2.00;;;;;11.31;78.03;101297.75;5098351;27;45516;-72
2022/01/11 03:57:32;;;;;;;;;5.33;3.00;;;;;11.31;78.16;101300.38;5098728;27;45340;-73
2022/01/11 03:59:59;;;;;;;;;5.00;4.67;;;;;11.22;78.61;101290.47;5098862;27;45433;-72
2022/01/11 04:02:26;;;;;;;;;10.67;6.00;;;;;11.27;78.82;101301.09;5097023;27;46404;-72
2022/01/11 04:04:54;;;;;;;;;22.75;20.00;;;;;11.18;78.72;101296.41;5098358;27;45486;-72
2022/01/11 04:07:22;;;;;;;;;32.25;26.00;;;;;11.23;78.76;101294.84;5098254;27;45421;-72
2022/01/11 04:09:49;;;;;;;;;59.75;44.00;;;;;11.19;78.89;101294.69;5098662;27;45416;-72
2022/01/11 04:12:15;;;;;;;;;18.00;14.67;;;;;11.23;79.25;101294.84;5098356;27;45425;-72
2022/01/11 04:14:41;;;;;;;;;10.00;8.33;;;;;11.25;79.01;101308.88;5096710;27;45259;-72
2022/01/11 04:17:07;;;;;;;;;6.67;6.00;;;;;11.18;79.36;101283.34;5098218;27;45445;-72
2022/01/11 04:19:32;;;;;;;;;6.00;5.67;;;;;11.26;78.80;101299.28;5098615;27;45455;-72
2022/01/11 04:21:58;;;;;;;;;8.00;7.00;;;;;11.27;78.60;101308.94;5098093;27;45811;-72
2022/01/11 04:24:24;;;;;;;;;9.67;7.67;;;;;11.28;78.56;101310.72;5096957;27;45384;-72
2022/01/11 04:26:50;;;;;;;;;7.33;6.00;;;;;11.30;78.60;101311.66;5098288;27;45228;-71
2022/01/11 04:29:15;;;;;;;;;4.67;4.00;;;;;11.29;78.55;101307.28;5098508;27;45522;-72
2022/01/11 04:31:41;;;;;;;;;6.33;4.67;;;;;11.21;78.20;101299.13;5096712;27;46388;-72
2022/01/11 04:34:07;;;;;;;;;4.00;4.00;;;;;11.23;78.34;101304.44;5098182;27;45222;-72
2022/01/11 04:36:33;;;;;;;;;5.33;3.33;;;;;11.20;78.50;101301.66;5098296;27;45570;-72
2022/01/11 04:39:00;;;;;;;;;5.00;4.00;;;;;11.18;78.96;101295.50;5098090;27;45518;-72
2022/01/11 04:41:26;;;;;;;;;4.00;4.00;;;;;11.13;79.10;101298.81;5098030;27;45472;-73
2022/01/11 04:43:51;;;;;;;;;5.00;4.00;;;;;11.11;78.37;101297.88;5097814;27;45356;-72
2022/01/11 04:46:18;;;;;;;;;5.00;4.67;;;;;11.08;78.87;101303.00;5097977;27;45466;-72
2022/01/11 04:48:47;;;;;;;;;5.33;5.00;;;;;10.99;79.06;101294.75;5098282;27;45296;-72
2022/01/11 04:51:13;;;;;;;;;6.00;5.00;;;;;10.96;79.01;101302.47;5097742;27;45278;-72
2022/01/11 04:53:39;;;;;;;;;5.67;4.67;;;;;10.83;79.70;101289.75;5097777;27;45318;-72
2022/01/11 04:56:05;;;;;;;;;5.00;4.00;;;;;10.82;79.62;101298.41;5097996;27;45400;-72
2022/01/11 04:58:31;;;;;;;;;6.33;6.00;;;;;10.73;79.86;101298.94;5096273;27;45616;-72
2022/01/11 05:00:57;;;;;;;;;6.67;6.00;;;;;10.67;79.84;101301.31;5097516;27;46042;-72
2022/01/11 05:03:23;;;;;;;;;6.00;5.00;;;;;10.57;80.06;101293.91;5096077;27;45411;-72
2022/01/11 05:05:48;;;;;;;;;7.00;6.00;;;;;10.55;80.63;101307.78;5097441;27;45460;-72
2022/01/11 05:08:14;;;;;;;;;7.67;6.00;;;;;10.46;80.64;101309.13;5097584;27;45438;-72
2022/01/11 05:10:42;;;;;;;;;6.67;6.00;;;;;10.33;80.51;101299.88;5097498;27;46051;-72
2022/01/11 05:13:16;;;;;;;;;5.00;5.00;;;;;10.32;80.87;101314.63;5097662;27;45424;-72
2022/01/11 05:15:43;;;;;;;;;6.33;5.67;;;;;10.26;81.29;101319.56;5097467;27;45397;-72
2022/01/11 05:18:10;;;;;;;;;5.33;5.33;;;;;10.22;81.49;101316.75;5098115;27;45293;-72
2022/01/11 05:20:36;;;;;;;;;5.00;5.00;;;;;10.16;81.69;101310.41;5097523;27;45469;-72
2022/01/11 05:23:03;;;;;;;;;5.00;4.00;;;;;10.10;81.90;101310.16;5097408;27;45505;-72
2022/01/11 05:25:29;;;;;;;;;5.67;5.00;;;;;9.94;81.61;101292.03;5097537;27;45474;-72
2022/01/11 05:27:54;;;;;;;;;7.67;4.67;;;;;9.96;81.93;101316.50;5096208;27;45533;-72
2022/01/11 05:30:20;;;;;;;;;6.33;6.33;;;;;9.93;81.94;101324.19;5097004;27;45543;-72
2022/01/11 05:32:48;;;;;;;;;7.00;5.75;;;;;9.91;82.32;101329.34;5097119;27;45519;-72
2022/01/11 05:35:15;;;;;;;;;10.67;8.00;;;;;9.93;81.85;101332.91;5097304;27;45380;-72
2022/01/11 05:37:41;;;;;;;;;8.00;6.00;;;;;9.87;81.91;101316.09;5097878;27;45475;-72
2022/01/11 05:40:08;;;;;;;;;7.33;5.67;;;;;9.98;81.82;101329.63;5097267;27;45571;-72
2022/01/11 05:42:34;;;;;;;;;6.00;5.00;;;;;10.01;81.62;101335.88;5096882;27;45398;-72
2022/01/11 05:45:00;;;;;;;;;6.00;5.00;;;;;9.97;81.58;101315.69;5096236;27;45518;-72
2022/01/11 05:47:26;;;;;;;;;20.75;14.25;;;;;9.92;81.80;101304.13;5095480;27;45436;-72
2022/01/11 05:49:51;;;;;;;;;12.25;11.50;;;;;9.92;81.57;101323.28;5095023;27;45439;-72
2022/01/11 05:52:17;;;;;;;;;5.00;4.00;;;;;10.02;80.95;101342.88;5095277;27;45404;-72
2022/01/11 05:54:43;;;;;;;;;5.00;5.00;;;;;10.03;81.18;101343.78;5095270;27;45449;-73
2022/01/11 05:57:09;;;;;;;;;2.33;1.00;;;;;9.94;80.95;101321.63;5098425;27;45452;-72
2022/01/11 05:59:35;;;;;;;;;4.33;4.00;;;;;10.09;80.18;101349.28;5104901;27;45895;-72
2022/01/11 06:02:00;;;;;;;;;1.00;1.00;;;;;10.06;79.83;101336.94;5104957;27;45578;-72
2022/01/11 06:04:26;;;;;;;;;1.00;1.00;;;;;10.12;79.71;101342.44;5106342;27;45444;-72
2022/01/11 06:06:52;;;;;;;;;1.00;1.00;;;;;10.15;79.82;101354.75;5104633;27;45352;-71
2022/01/11 06:09:18;;;;;;;;;0.67;0.67;;;;;10.12;79.77;101350.28;5105503;27;45462;-72
2022/01/11 06:11:43;;;;;;;;;0.00;0.00;;;;;10.13;80.02;101352.06;5109712;27;45349;-72
2022/01/11 06:14:09;;;;;;;;;0.33;0.33;;;;;10.05;79.47;101329.06;5107677;27;45412;-72
2022/01/11 06:16:36;;;;;;;;;0.33;0.33;;;;;10.13;79.64;101352.06;5101432;27;45512;-71
2022/01/11 06:19:02;;;;;;;;;1.00;1.00;;;;;10.12;79.60;101363.34;5098566;27;45503;-72
2022/01/11 06:21:28;;;;;;;;;1.00;1.00;;;;;10.12;79.86;101362.44;5098230;27;45446;-72
2022/01/11 06:23:54;;;;;;;;;0.00;0.00;;;;;10.14;79.82;101359.06;5098372;27;45459;-72
2022/01/11 06:26:20;;;;;;;;;1.00;1.00;;;;;10.12;79.86;101358.09;5097295;27;45414;-71
2022/01/11 06:28:45;;;;;;;;;1.00;1.00;;;;;10.15;79.84;101362.59;5098032;27;45956;-72
2022/01/11 06:31:11;;;;;;;;;2.00;1.00;;;;;10.12;79.48;101368.56;5098755;27;45571;-73
2022/01/11 06:33:37;;;;;;;;;3.00;2.00;;;;;10.13;79.76;101369.47;5098605;27;45993;-72
2022/01/11 06:36:09;;;;;;;;;1.67;1.67;;;;;10.15;79.16;101380.88;5102426;27;45490;-72
2022/01/11 06:38:36;;;;;;;;;1.67;1.67;;;;;10.10;79.66;101378.03;5101825;27;45546;-73
2022/01/11 06:41:02;;;;;;;;;0.67;0.67;;;;;10.19;79.22;101388.03;5100643;27;45768;-73
2022/01/11 06:43:27;;;;;;;;;1.00;0.33;;;;;10.20;79.30;101384.56;5100633;27;45389;-72
2022/01/11 06:45:53;;;;;;;;;0.00;0.00;;;;;10.24;79.28;101390.81;5102030;27;45401;-72
2022/01/11 06:48:18;;;;;;;;;0.00;0.00;;;;;10.21;79.27;101383.75;5099070;27;45425;-72
2022/01/11 06:50:44;;;;;;;;;4.00;3.00;;;;;10.28;79.01;101392.75;5098224;27;46049;-72
2022/01/11 06:53:10;;;;;;;;;5.00;5.00;;;;;10.28;78.83;101397.97;5098277;27;45511;-71
2022/01/11 06:55:35;;;;;;;;;6.67;5.67;;;;;10.23;78.84;101389.06;5098114;27;45457;-71
2022/01/11 06:58:01;;;;;;;;;8.33;7.00;;;;;10.31;78.62;101404.25;5097878;27;45582;-71
2022/01/11 07:00:27;;;;;;;;;4.33;4.33;;;;;10.35;78.63;101408.78;5097873;27;45381;-71
2022/01/11 07:02:53;;;;;;;;;21.25;19.25;;;;;10.36;78.73;101412.28;5098002;27;45546;-71
2022/01/11 07:05:18;;;;;;;;;66.00;48.50;;;;;10.29;78.54;101403.28;5096425;27;45516;-71
2022/01/11 07:07:44;;;;;;;;;69.25;52.75;;;;;10.31;78.82;101406.88;5096124;27;45429;-71
2022/01/11 07:10:10;;;;;;;;;48.25;39.25;;;;;10.30;78.85;101397.25;5097881;27;45472;-72
2022/01/11 07:12:36;;;;;;;;;19.50;17.00;;;;;10.41;78.77;101410.78;5097423;27;45389;-71
2022/01/11 07:15:03;;;;;;;;;12.00;10.00;;;;;10.38;78.62;101397.59;5097893;27;45313;-71
2022/01/11 07:17:28;;;;;;;;;9.75;9.75;;;;;10.46;78.76;101414.47;5097288;27;46190;-71
2022/01/11 07:19:54;;;;;;;;;9.00;6.67;;;;;10.47;78.63;101415.41;5097276;27;45611;-72
2022/01/11 07:22:19;;;;;;;;;95.33;77.33;;;;;10.48;78.33;101411.94;5097555;27;45747;-71
2022/01/11 07:24:45;;;;;;;;;56.25;43.25;;;;;10.45;78.52;101404.88;5097649;27;45357;-72
2022/01/11 07:27:11;;;;;;;;;31.75;26.50;;;;;10.51;78.28;101417.31;5097403;27;45845;-72
2022/01/11 07:29:37;;;;;;;;;38.75;35.00;;;;;10.50;78.39;101416.44;5096962;27;45309;-71
2022/01/11 07:32:02;;;;;;;;;9.67;6.00;;;;;10.47;77.92;101411.06;5097080;27;45364;-72
2022/01/11 07:34:28;;;;;;;;;24.50;21.25;;;;;10.53;78.37;101426.13;5097560;27;45516;-71
2022/01/11 07:36:54;;;;;;;;;12.00;11.25;;;;;10.51;78.25;101419.94;5097073;27;45325;-71
2022/01/11 07:39:19;;;;;;;;;27.00;24.50;;;;;10.53;78.25;101427.00;5094514;27;45435;-72
2022/01/11 07:41:45;;;;;;;;;34.00;32.00;;;;;10.45;78.44;101414.44;5097291;27;45470;-71
2022/01/11 07:44:11;;;;;;;;;31.50;27.75;;;;;10.45;78.56;101412.72;5096348;27;45482;-72
2022/01/11 07:46:42;;;;;;;;;21.25;19.75;;;;;10.45;78.53;101417.06;5096756;27;45424;-71
2022/01/11 07:49:08;;;;;;;;;12.50;11.00;;;;;10.55;78.67;101433.19;5096836;27;45399;-71
2022/01/11 07:51:33;;;;;;;;;22.25;19.75;;;;;10.54;78.57;101439.25;5096921;27;45483;-71
2022/01/11 07:53:59;;;;;;;;;13.00;12.00;;;;;10.55;78.10;101437.53;5096946;27;45520;-71
2022/01/11 07:56:25;;;;;;;;;16.50;16.25;;;;;10.54;78.41;101443.56;5096663;27;45439;-72
2022/01/11 07:58:51;;;;;;;;;13.00;10.75;;;;;10.54;78.38;101448.78;5096873;27;45273;-72
2022/01/11 08:01:16;;;;;;;;;14.50;14.50;;;;;10.58;78.50;101447.22;5095361;27;45451;-71
2022/01/11 08:03:42;;;;;;;;;15.00;14.25;;;;;10.58;78.53;101455.06;5097383;27;45568;-72
2022/01/11 08:06:08;;;;;;;;;11.00;11.00;;;;;10.61;78.58;101449.97;5102370;27;45375;-71
2022/01/11 08:08:34;;;;;;;;;14.75;12.00;;;;;10.55;78.61;101440.16;5111870;27;45503;-72
2022/01/11 08:11:00;;;;;;;;;21.75;20.00;;;;;10.63;78.53;101446.59;5106857;27;45530;-71
2022/01/11 08:13:26;;;;;;;;;43.50;35.00;;;;;10.63;78.72;101450.94;5100414;27;45600;-72
2022/01/11 08:15:52;;;;;;;;;26.75;23.75;;;;;10.72;78.69;101460.09;5096368;27;46079;-72
2022/01/11 08:18:17;;;;;;;;;15.00;14.50;;;;;10.74;78.67;101452.28;5094926;27;45898;-71
2022/01/11 08:20:46;;;;;;;;;16.00;14.00;;;;;10.75;78.53;101444.50;5096933;27;45622;-71
2022/01/11 08:23:11;;;;;;;;;14.75;14.25;;;;;10.86;78.24;101463.31;5092116;27;45464;-72
2022/01/11 08:25:37;;;;;;;;;21.50;20.25;;;;;10.92;77.93;101465.25;5093687;27;45398;-72
2022/01/11 08:28:04;;;;;;;;;35.00;33.00;;;;;10.87;77.53;101452.00;5094542;27;45511;-72
2022/01/11 08:30:30;;;;;;;;;20.75;18.25;;;;;10.97;77.95;101471.59;5096088;27;45479;-71
2022/01/11 08:32:56;;;;;;;;;20.00;17.25;;;;;11.06;78.01;101477.22;5096303;27;45626;-71
2022/01/11 08:35:24;;;;;;;;;24.75;21.25;;;;;11.08;77.48;101470.34;5095111;27;46132;-72
2022/01/11 08:37:50;;;;;;;;;23.25;20.25;;;;;11.19;77.44;101481.25;5094007;27;45528;-72
2022/01/11 08:40:16;;;;;;;;;32.75;30.50;;;;;11.16;77.30;101478.53;5094026;27;45795;-72
2022/01/11 08:42:41;;;;;;;;;16.00;15.67;;;;;11.13;77.33;101484.47;5111628;27;45445;-71
2022/01/11 08:45:08;;;;;;;;;14.25;13.00;;;;;11.16;77.08;101483.75;5095730;27;45915;-71
2022/01/11 08:47:34;;;;;;;;;13.50;13.50;;;;;11.21;77.25;101492.66;5096186;27;45459;-71
2022/01/11 08:50:02;;;;;;;;;16.00;11.67;;;;;11.19;77.05;101477.75;5095019;27;45445;-71
2022/01/11 08:52:28;;;;;;;;;24.75;21.75;;;;;11.29;76.61;101490.38;5096862;27;45417;-71
2022/01/11 08:54:55;;;;;;;;;16.00;15.75;;;;;11.34;76.43;101496.72;5095109;27;45766;-71
2022/01/11 08:57:20;;;;;;;;;21.00;16.75;;;;;11.36;76.73;101489.81;5095552;27;45369;-71
2022/01/11 08:59:47;;;;;;;;;23.25;21.25;;;;;11.44;76.52;101498.88;5096343;27;45462;-74
2022/01/11 09:02:13;;;;;;;;;31.50;22.25;;;;;11.44;76.30;101503.19;5097087;27;45338;-71
2022/01/11 09:04:39;;;;;;;;;23.50;21.00;;;;;11.49;76.14;101505.16;5077058;27;45433;-71
2022/01/11 09:07:06;;;;;;;;;33.00;26.00;;;;;11.60;76.06;101508.25;5076546;27;45552;-71
2022/01/11 09:09:32;;;;;;;;;22.50;20.00;;;;;11.66;75.48;101510.22;5076603;28;45489;-71
2022/01/11 09:11:59;;;;;;;;;29.50;26.50;;;;;11.74;75.27;101514.94;5076940;27;45203;-71
2022/01/11 09:14:25;;;;;;;;;35.50;32.00;;;;;11.81;74.82;101518.69;5076669;27;45986;-71
2022/01/11 09:16:51;;;;;;;;;18.00;17.00;;;;;11.89;74.65;101514.69;5075622;28;46164;-71
2022/01/11 09:19:18;;;;;;;;;26.75;22.75;;;;;11.94;74.04;101526.25;5077364;27;45526;-71
2022/01/11 09:21:45;;;;;;;;;43.00;36.75;;;;;11.98;74.17;101526.34;5077436;27;45523;-71
2022/01/11 09:24:12;;;;;;;;;30.00;22.25;;;;;11.98;73.86;101529.88;5077322;27;45436;-71
2022/01/11 09:26:39;;;;;;;;;27.00;24.75;;;;;11.97;73.61;101535.94;5077042;28;45534;-71
2022/01/11 09:29:05;;;;;;;;;20.75;19.00;;;;;12.03;73.59;101536.19;5077249;27;45428;-71
2022/01/11 09:31:30;;;;;;;;;22.75;17.50;;;;;12.11;73.16;101537.38;5077032;27;45373;-71
2022/01/11 09:33:56;;;;;;;;;16.67;14.33;;;;;12.20;72.84;101541.22;5075481;28;45730;-72
2022/01/11 09:36:21;;;;;;;;;24.50;20.50;;;;;12.22;72.95;101544.78;5076318;27;45294;-73
2022/01/11 09:38:47;;;;;;;;;19.25;17.75;;;;;12.28;72.39;101543.28;5077145;27;45472;-72
2022/01/11 09:41:13;;;;;;;;;21.50;19.25;;;;;12.34;72.52;101538.28;5077405;27;45309;-72
2022/01/11 09:43:38;;;;;;;;;18.25;17.75;;;;;12.51;72.55;101553.75;5075544;28;45422;-72
2022/01/11 09:46:04;;;;;;;;;18.00;14.33;;;;;12.73;71.34;101568.56;5079618;27;45223;-73
2022/01/11 09:48:32;;;;;;;;;20.33;15.67;;;;;12.90;71.12;101569.22;5080324;27;45248;-73
2022/01/11 09:50:59;;;;;;;;;15.67;14.00;;;;;13.06;71.02;101562.78;5080745;27;45310;-73
2022/01/11 09:53:26;;;;;;;;;13.75;13.50;;;;;13.28;70.69;101570.56;5080320;27;46086;-73
2022/01/11 09:55:52;;;;;;;;;11.33;10.67;;;;;13.45;69.43;101570.28;5080235;27;45235;-73
2022/01/11 09:58:18;;;;;;;;;16.67;12.00;;;;;13.62;68.56;101570.88;5080391;27;45434;-73
2022/01/11 10:00:44;;;;;;;;;12.33;10.67;;;;;13.85;68.19;101580.44;5080880;27;45160;-73
2022/01/11 10:03:10;;;;;;;;;14.00;11.67;;;;;14.05;67.90;101588.09;5080104;27;45433;-72
2022/01/11 10:05:37;;;;;;;;;13.00;12.67;;;;;14.09;67.23;101572.47;5080191;27;45228;-73
2022/01/11 10:08:25;;;;;;;;;18.00;15.00;;;;;14.24;67.35;101592.19;5080270;27;45512;-71
2022/01/11 10:10:52;;;;;;;;;14.33;14.00;;;;;14.31;66.66;101591.53;5080420;27;45449;-73
2022/01/11 10:13:36;;;;;;;;;19.00;16.33;;;;;14.37;66.21;101598.72;5079929;28;46056;-72
2022/01/11 10:16:25;;;;;;;;;19.33;16.00;;;;;14.34;66.33;101602.13;5080115;27;45464;-72
2022/01/11 10:18:52;;;;;;;;;16.67;14.67;;;;;14.36;65.53;101600.44;5080135;27;45203;-72
2022/01/11 10:21:41;;;;;;;;;25.75;20.25;;;;;14.32;66.35;101609.06;5096504;27;45572;-73
2022/01/11 10:24:35;;;;;;;;;18.00;14.67;;;;;14.29;65.93;101616.88;5079771;27;45618;-73
2022/01/11 10:27:12;;;;;;;;;20.00;16.00;;;;;14.31;65.75;101610.81;5074020;27;45654;-73
2022/01/11 10:29:40;;;;;;;;;17.50;16.50;;;;;14.27;64.94;101619.47;5080029;27;45413;-73
2022/01/11 10:32:13;;;;;;;;;11.67;11.33;;;;;14.18;65.27;101618.25;5080150;27;45208;-73
2022/01/11 10:34:39;;;;;;;;;21.00;17.00;;;;;14.20;64.42;101624.47;5079586;27;46144;-73
2022/01/11 10:37:05;;;;;;;;;14.33;13.67;;;;;14.22;63.91;101621.03;5079701;28;45175;-73
2022/01/11 10:39:40;;;;;;;;;11.67;11.33;;;;;14.23;64.83;101624.56;5079882;27;45166;-73
2022/01/11 10:42:22;;;;;;;;;13.00;11.33;;;;;14.31;64.39;101618.72;5079829;27;45433;-73
2022/01/11 10:45:20;;;;;;;;;13.00;12.33;;;;;14.40;64.38;101625.09;5079616;27;45369;-73
2022/01/11 10:47:53;;;;;;;;;11.00;10.00;;;;;14.44;63.82;101619.09;5073749;28;45358;-72
2022/01/11 10:50:27;;;;;;;;;11.00;9.33;;;;;14.43;64.09;101615.56;5079899;27;45302;-73
2022/01/11 10:52:54;;;;;;;;;13.33;10.00;;;;;14.38;63.41;101614.53;5079684;27;45277;-73
2022/01/11 10:55:23;;;;;;;;;11.33;10.00;;;;;14.36;63.50;101608.31;5079138;28;45472;-71
2022/01/11 10:57:52;;;;;;;;;14.67;12.00;;;;;14.38;63.17;101613.63;5079556;27;45402;-72
2022/01/11 11:00:49;;;;;;;;;10.67;10.67;;;;;14.40;64.12;101615.47;5079878;27;45357;-73
2022/01/11 11:03:20;;;;;;;;;10.00;9.00;;;;;14.45;64.06;101611.25;5079728;27;45285;-72
2022/01/11 11:05:56;;;;;;;;;13.00;12.67;;;;;14.52;62.99;101607.97;5079470;27;45383;-73
2022/01/11 11:08:27;;;;;;;;;25.00;21.00;;;;;14.60;63.32;101602.97;5079162;27;45385;-72
2022/01/11 11:10:56;;;;;;;;;14.33;13.33;;;;;14.69;62.87;101605.00;5095094;27;45410;-72
2022/01/11 11:13:27;;;;;;;;;14.00;13.67;;;;;14.76;62.69;101588.53;5079414;27;45356;-72
2022/01/11 11:15:56;;;;;;;;;9.00;8.00;;;;;14.82;61.92;101579.94;5078985;27;45458;-73
2022/01/11 11:18:32;;;;;;;;;7.67;7.00;;;;;14.95;62.51;101586.47;5078831;27;45550;-73
2022/01/11 11:21:22;;;;;;;;;10.00;9.00;;;;;15.04;61.59;101581.44;5079114;27;45328;-73
2022/01/11 11:23:51;;;;;;;;;9.00;7.00;;;;;15.21;61.00;101585.44;5095271;27;45177;-72